sensor_id;sensor_type;location;lat;lon;timestamp;temperature;humidity
7814;DHT22;3952;48.364;16.022;2022-10-31T00:00:18;11.80;99.90
7814;DHT22;3952;48.364;16.022;2022-10-31T00:02:47;11.70;99.90
7814;DHT22;3952;48.364;16.022;2022-10-31T00:05:14;11.80;99.90
7814;DHT22;3952;48.364;16.022;2022-10-31T00:07:41;11.70;99.90
7814;DHT22;3952;48.364;16.022;2022-10-31T00:10:09;11.80;99.90
7814;DHT22;3952;48.364;16.022;2022-10-31T00:12:36;11.80;99.90
7814;DHT22;3952;48.364;16.022;2022-10-31T00:15:04;11.80;99.90
7814;DHT22;3952;48.364;16.022;2022-10-31T00:17:34;11.80;99.90
7814;DHT22;3952;48.364;16.022;2022-10-31T00:20:03;11.80;99.90
7814;DHT22;3952;48.364;16.022;2022-10-31T00:22:30;11.80;99.90
7814;DHT22;3952;48.364;16.022;2022-10-31T00:24:58;11.70;99.90
7814;DHT22;3952;48.364;16.022;2022-10-31T00:27:25;11.70;99.90
7814;DHT22;3952;48.364;16.022;2022-10-31T00:29:52;11.70;99.90
7814;DHT22;3952;48.364;16.022;2022-10-31T00:32:19;11.60;99.90
7814;DHT22;3952;48.364;16.022;2022-10-31T00:34:46;11.70;99.90
7814;DHT22;3952;48.364;16.022;2022-10-31T00:37:15;11.70;99.90
7814;DHT22;3952;48.364;16.022;2022-10-31T00:39:42;11.60;99.90
7814;DHT22;3952;48.364;16.022;2022-10-31T00:42:10;11.70;99.90
7814;DHT22;3952;48.364;16.022;2022-10-31T00:44:38;11.70;99.90
7814;DHT22;3952;48.364;16.022;2022-10-31T00:47:05;11.70;99.90
7814;DHT22;3952;48.364;16.022;2022-10-31T00:49:32;11.70;99.90
7814;DHT22;3952;48.364;16.022;2022-10-31T00:51:59;11.70;99.90
7814;DHT22;3952;48.364;16.022;2022-10-31T00:54:28;11.60;99.90
7814;DHT22;3952;48.364;16.022;2022-10-31T00:56:56;11.60;99.90
7814;DHT22;3952;48.364;16.022;2022-10-31T00:59:24;11.60;99.90
7814;DHT22;3952;48.364;16.022;2022-10-31T01:01:51;11.60;99.90
7814;DHT22;3952;48.364;16.022;2022-10-31T01:04:18;11.60;99.90
7814;DHT22;3952;48.364;16.022;2022-10-31T01:06:45;11.60;99.90
7814;DHT22;3952;48.364;16.022;2022-10-31T01:09:12;11.60;99.90
7814;DHT22;3952;48.364;16.022;2022-10-31T01:11:41;11.60;99.90
7814;DHT22;3952;48.364;16.022;2022-10-31T01:14:09;11.60;99.90
7814;DHT22;3952;48.364;16.022;2022-10-31T01:16:36;11.60;99.90
7814;DHT22;3952;48.364;16.022;2022-10-31T01:19:03;11.70;99.90
7814;DHT22;3952;48.364;16.022;2022-10-31T01:21:30;11.70;99.90
7814;DHT22;3952;48.364;16.022;2022-10-31T01:23:58;11.60;99.90
7814;DHT22;3952;48.364;16.022;2022-10-31T01:26:29;11.60;99.90
7814;DHT22;3952;48.364;16.022;2022-10-31T01:29:00;11.60;99.90
7814;DHT22;3952;48.364;16.022;2022-10-31T01:31:29;11.60;99.90
7814;DHT22;3952;48.364;16.022;2022-10-31T01:33:57;11.60;99.90
7814;DHT22;3952;48.364;16.022;2022-10-31T01:36:26;11.60;99.90
7814;DHT22;3952;48.364;16.022;2022-10-31T01:38:57;11.60;99.90
7814;DHT22;3952;48.364;16.022;2022-10-31T01:41:27;11.60;99.90
7814;DHT22;3952;48.364;16.022;2022-10-31T01:43:58;11.50;99.90
7814;DHT22;3952;48.364;16.022;2022-10-31T01:46:29;11.50;99.90
7814;DHT22;3952;48.364;16.022;2022-10-31T01:49:01;11.50;99.90
7814;DHT22;3952;48.364;16.022;2022-10-31T01:51:33;11.50;99.90
7814;DHT22;3952;48.364;16.022;2022-10-31T01:54:04;11.40;99.90
7814;DHT22;3952;48.364;16.022;2022-10-31T01:56:34;11.50;99.90
7814;DHT22;3952;48.364;16.022;2022-10-31T01:59:06;11.50;99.90
7814;DHT22;3952;48.364;16.022;2022-10-31T02:01:35;11.50;99.90
7814;DHT22;3952;48.364;16.022;2022-10-31T02:04:03;11.50;99.90
7814;DHT22;3952;48.364;16.022;2022-10-31T02:06:37;11.50;99.90
7814;DHT22;3952;48.364;16.022;2022-10-31T02:09:06;11.50;99.90
7814;DHT22;3952;48.364;16.022;2022-10-31T02:11:34;11.50;99.90
7814;DHT22;3952;48.364;16.022;2022-10-31T02:14:04;11.50;99.90
7814;DHT22;3952;48.364;16.022;2022-10-31T02:16:31;11.50;99.90
7814;DHT22;3952;48.364;16.022;2022-10-31T02:18:58;11.50;99.90
7814;DHT22;3952;48.364;16.022;2022-10-31T02:21:30;11.50;99.90
7814;DHT22;3952;48.364;16.022;2022-10-31T02:27:37;11.60;99.90
7814;DHT22;3952;48.364;16.022;2022-10-31T02:30:15;11.60;99.90
7814;DHT22;3952;48.364;16.022;2022-10-31T02:32:57;11.60;99.90
7814;DHT22;3952;48.364;16.022;2022-10-31T02:35:44;11.60;99.90
7814;DHT22;3952;48.364;16.022;2022-10-31T02:38:23;11.60;99.90
7814;DHT22;3952;48.364;16.022;2022-10-31T02:40:57;11.70;99.90
7814;DHT22;3952;48.364;16.022;2022-10-31T02:43:30;11.70;99.90
7814;DHT22;3952;48.364;16.022;2022-10-31T02:46:04;11.70;99.90
7814;DHT22;3952;48.364;16.022;2022-10-31T02:48:36;11.60;99.90
7814;DHT22;3952;48.364;16.022;2022-10-31T02:51:05;11.70;99.90
7814;DHT22;3952;48.364;16.022;2022-10-31T02:53:33;11.70;99.90
7814;DHT22;3952;48.364;16.022;2022-10-31T02:56:05;11.70;99.90
7814;DHT22;3952;48.364;16.022;2022-10-31T02:58:37;11.70;99.90
7814;DHT22;3952;48.364;16.022;2022-10-31T03:01:30;11.70;99.90
7814;DHT22;3952;48.364;16.022;2022-10-31T03:04:17;11.70;99.90
7814;DHT22;3952;48.364;16.022;2022-10-31T03:06:54;11.70;99.90
7814;DHT22;3952;48.364;16.022;2022-10-31T03:09:28;11.70;99.90
7814;DHT22;3952;48.364;16.022;2022-10-31T03:12:07;11.70;99.90
7814;DHT22;3952;48.364;16.022;2022-10-31T03:14:41;11.70;99.90
7814;DHT22;3952;48.364;16.022;2022-10-31T03:17:13;11.60;99.90
7814;DHT22;3952;48.364;16.022;2022-10-31T03:19:45;11.60;99.90
7814;DHT22;3952;48.364;16.022;2022-10-31T03:22:17;11.60;99.90
7814;DHT22;3952;48.364;16.022;2022-10-31T03:24:45;11.60;99.90
7814;DHT22;3952;48.364;16.022;2022-10-31T03:27:17;11.60;99.90
7814;DHT22;3952;48.364;16.022;2022-10-31T03:29:47;11.60;99.90
7814;DHT22;3952;48.364;16.022;2022-10-31T03:32:18;11.60;99.90
7814;DHT22;3952;48.364;16.022;2022-10-31T03:34:50;11.60;99.90
7814;DHT22;3952;48.364;16.022;2022-10-31T03:37:21;11.60;99.90
7814;DHT22;3952;48.364;16.022;2022-10-31T03:39:49;11.70;99.90
7814;DHT22;3952;48.364;16.022;2022-10-31T03:42:20;11.70;99.90
7814;DHT22;3952;48.364;16.022;2022-10-31T03:44:53;11.70;99.90
7814;DHT22;3952;48.364;16.022;2022-10-31T03:47:21;11.60;99.90
7814;DHT22;3952;48.364;16.022;2022-10-31T03:49:50;11.70;99.90
7814;DHT22;3952;48.364;16.022;2022-10-31T03:52:24;11.70;99.90
7814;DHT22;3952;48.364;16.022;2022-10-31T03:54:55;11.70;99.90
7814;DHT22;3952;48.364;16.022;2022-10-31T03:57:29;11.70;99.90
7814;DHT22;3952;48.364;16.022;2022-10-31T04:00:00;11.60;99.90
7814;DHT22;3952;48.364;16.022;2022-10-31T04:02:30;11.60;99.90
7814;DHT22;3952;48.364;16.022;2022-10-31T04:05:01;11.60;99.90
7814;DHT22;3952;48.364;16.022;2022-10-31T04:07:31;11.60;99.90
7814;DHT22;3952;48.364;16.022;2022-10-31T04:10:02;11.50;99.90
7814;DHT22;3952;48.364;16.022;2022-10-31T04:12:31;11.50;99.90
7814;DHT22;3952;48.364;16.022;2022-10-31T04:14:59;11.60;99.90
7814;DHT22;3952;48.364;16.022;2022-10-31T04:17:31;11.50;99.90
7814;DHT22;3952;48.364;16.022;2022-10-31T05:20:31;11.20;99.90
7814;DHT22;3952;48.364;16.022;2022-10-31T05:22:59;11.20;99.90
7814;DHT22;3952;48.364;16.022;2022-10-31T05:25:27;11.20;99.90
7814;DHT22;3952;48.364;16.022;2022-10-31T05:27:55;11.20;99.90
7814;DHT22;3952;48.364;16.022;2022-10-31T05:30:26;11.20;99.90
7814;DHT22;3952;48.364;16.022;2022-10-31T05:32:53;11.20;99.90
7814;DHT22;3952;48.364;16.022;2022-10-31T05:35:22;11.20;99.90
7814;DHT22;3952;48.364;16.022;2022-10-31T05:37:51;11.20;99.90
7814;DHT22;3952;48.364;16.022;2022-10-31T05:40:19;11.20;99.90
7814;DHT22;3952;48.364;16.022;2022-10-31T05:42:47;11.20;99.90
7814;DHT22;3952;48.364;16.022;2022-10-31T05:45:16;11.20;99.90
7814;DHT22;3952;48.364;16.022;2022-10-31T05:47:50;11.20;99.90
7814;DHT22;3952;48.364;16.022;2022-10-31T05:50:18;11.20;99.90
7814;DHT22;3952;48.364;16.022;2022-10-31T05:52:45;11.20;99.90
7814;DHT22;3952;48.364;16.022;2022-10-31T05:55:14;11.20;99.90
7814;DHT22;3952;48.364;16.022;2022-10-31T05:57:42;11.20;99.90
7814;DHT22;3952;48.364;16.022;2022-10-31T06:00:10;11.20;99.90
7814;DHT22;3952;48.364;16.022;2022-10-31T06:02:37;11.20;99.90
7814;DHT22;3952;48.364;16.022;2022-10-31T06:05:05;11.20;99.90
7814;DHT22;3952;48.364;16.022;2022-10-31T06:07:33;11.30;99.90
7814;DHT22;3952;48.364;16.022;2022-10-31T06:10:02;11.30;99.90
7814;DHT22;3952;48.364;16.022;2022-10-31T06:12:31;11.20;99.90
7814;DHT22;3952;48.364;16.022;2022-10-31T06:15:04;11.20;99.90
7814;DHT22;3952;48.364;16.022;2022-10-31T06:17:33;11.20;99.90
7814;DHT22;3952;48.364;16.022;2022-10-31T06:20:01;11.20;99.90
7814;DHT22;3952;48.364;16.022;2022-10-31T06:22:28;11.20;99.90
7814;DHT22;3952;48.364;16.022;2022-10-31T06:24:55;11.20;99.90
7814;DHT22;3952;48.364;16.022;2022-10-31T06:27:23;11.20;99.90
7814;DHT22;3952;48.364;16.022;2022-10-31T06:29:52;11.30;99.90
7814;DHT22;3952;48.364;16.022;2022-10-31T06:32:19;11.20;99.90
7814;DHT22;3952;48.364;16.022;2022-10-31T06:34:46;11.30;99.90
7814;DHT22;3952;48.364;16.022;2022-10-31T06:37:15;11.30;99.90
7814;DHT22;3952;48.364;16.022;2022-10-31T06:39:42;11.30;99.90
7814;DHT22;3952;48.364;16.022;2022-10-31T06:42:09;11.40;99.90
7814;DHT22;3952;48.364;16.022;2022-10-31T06:44:37;11.40;99.90
7814;DHT22;3952;48.364;16.022;2022-10-31T06:47:05;11.40;99.90
7814;DHT22;3952;48.364;16.022;2022-10-31T06:49:33;11.50;99.90
7814;DHT22;3952;48.364;16.022;2022-10-31T06:52:00;11.50;99.90
7814;DHT22;3952;48.364;16.022;2022-10-31T06:54:27;11.40;99.90
7814;DHT22;3952;48.364;16.022;2022-10-31T06:56:55;11.40;99.90
7814;DHT22;3952;48.364;16.022;2022-10-31T06:59:22;11.50;99.90
7814;DHT22;3952;48.364;16.022;2022-10-31T07:01:50;11.50;99.90
7814;DHT22;3952;48.364;16.022;2022-10-31T07:04:18;11.50;99.90
7814;DHT22;3952;48.364;16.022;2022-10-31T07:06:45;11.50;99.90
7814;DHT22;3952;48.364;16.022;2022-10-31T07:09:13;11.50;99.90
7814;DHT22;3952;48.364;16.022;2022-10-31T07:11:40;11.50;99.90
7814;DHT22;3952;48.364;16.022;2022-10-31T07:14:07;11.50;99.90
7814;DHT22;3952;48.364;16.022;2022-10-31T07:16:34;11.50;99.90
7814;DHT22;3952;48.364;16.022;2022-10-31T07:19:02;11.50;99.90
7814;DHT22;3952;48.364;16.022;2022-10-31T07:21:30;11.50;99.90
7814;DHT22;3952;48.364;16.022;2022-10-31T07:23:58;11.50;99.90
7814;DHT22;3952;48.364;16.022;2022-10-31T07:26:25;11.50;99.90
7814;DHT22;3952;48.364;16.022;2022-10-31T07:28:53;11.50;99.90
7814;DHT22;3952;48.364;16.022;2022-10-31T07:31:20;11.40;99.90
7814;DHT22;3952;48.364;16.022;2022-10-31T07:33:48;11.40;99.90
7814;DHT22;3952;48.364;16.022;2022-10-31T07:36:16;11.40;99.90
7814;DHT22;3952;48.364;16.022;2022-10-31T07:38:45;11.40;99.90
7814;DHT22;3952;48.364;16.022;2022-10-31T07:41:12;11.30;99.90
7814;DHT22;3952;48.364;16.022;2022-10-31T07:43:39;11.30;99.90
7814;DHT22;3952;48.364;16.022;2022-10-31T07:46:06;11.30;99.90
7814;DHT22;3952;48.364;16.022;2022-10-31T07:48:33;11.30;99.90
7814;DHT22;3952;48.364;16.022;2022-10-31T07:51:01;11.40;99.90
7814;DHT22;3952;48.364;16.022;2022-10-31T07:53:28;11.40;99.90
7814;DHT22;3952;48.364;16.022;2022-10-31T07:55:57;11.40;99.90
7814;DHT22;3952;48.364;16.022;2022-10-31T07:58:24;11.40;99.90
7814;DHT22;3952;48.364;16.022;2022-10-31T08:00:51;11.30;99.90
7814;DHT22;3952;48.364;16.022;2022-10-31T08:03:19;11.40;99.90
7814;DHT22;3952;48.364;16.022;2022-10-31T08:05:46;11.40;99.90
7814;DHT22;3952;48.364;16.022;2022-10-31T08:08:14;11.50;99.90
7814;DHT22;3952;48.364;16.022;2022-10-31T08:10:42;11.50;99.90
7814;DHT22;3952;48.364;16.022;2022-10-31T08:13:12;11.50;99.90
7814;DHT22;3952;48.364;16.022;2022-10-31T08:15:40;11.60;99.90
7814;DHT22;3952;48.364;16.022;2022-10-31T08:18:12;11.60;99.90
7814;DHT22;3952;48.364;16.022;2022-10-31T08:20:39;11.60;99.90
7814;DHT22;3952;48.364;16.022;2022-10-31T08:23:06;11.60;99.90
7814;DHT22;3952;48.364;16.022;2022-10-31T08:25:35;11.60;99.90
7814;DHT22;3952;48.364;16.022;2022-10-31T08:28:03;11.50;99.90
7814;DHT22;3952;48.364;16.022;2022-10-31T08:30:34;11.60;99.90
7814;DHT22;3952;48.364;16.022;2022-10-31T08:33:03;11.60;99.90
7814;DHT22;3952;48.364;16.022;2022-10-31T08:35:31;11.60;99.90
7814;DHT22;3952;48.364;16.022;2022-10-31T08:37:59;11.60;99.90
7814;DHT22;3952;48.364;16.022;2022-10-31T08:40:27;11.60;99.90
7814;DHT22;3952;48.364;16.022;2022-10-31T08:42:59;11.60;99.90
7814;DHT22;3952;48.364;16.022;2022-10-31T08:45:27;11.60;99.90
7814;DHT22;3952;48.364;16.022;2022-10-31T08:47:59;11.70;99.90
7814;DHT22;3952;48.364;16.022;2022-10-31T08:50:28;11.70;99.90
7814;DHT22;3952;48.364;16.022;2022-10-31T08:53:00;11.70;99.90
7814;DHT22;3952;48.364;16.022;2022-10-31T08:55:27;11.70;99.90
7814;DHT22;3952;48.364;16.022;2022-10-31T08:57:55;11.70;99.90
7814;DHT22;3952;48.364;16.022;2022-10-31T09:00:23;11.70;99.90
7814;DHT22;3952;48.364;16.022;2022-10-31T09:02:55;11.70;99.90
7814;DHT22;3952;48.364;16.022;2022-10-31T09:05:24;11.70;99.90
7814;DHT22;3952;48.364;16.022;2022-10-31T09:07:55;11.70;99.90
7814;DHT22;3952;48.364;16.022;2022-10-31T09:10:23;11.70;99.90
7814;DHT22;3952;48.364;16.022;2022-10-31T09:12:55;11.70;99.90
7814;DHT22;3952;48.364;16.022;2022-10-31T09:15:22;11.70;99.90
7814;DHT22;3952;48.364;16.022;2022-10-31T09:17:50;11.70;99.90
7814;DHT22;3952;48.364;16.022;2022-10-31T09:20:17;11.70;99.90
7814;DHT22;3952;48.364;16.022;2022-10-31T09:22:46;11.70;99.90
7814;DHT22;3952;48.364;16.022;2022-10-31T09:25:14;11.80;99.90
7814;DHT22;3952;48.364;16.022;2022-10-31T09:27:41;11.80;99.90
7814;DHT22;3952;48.364;16.022;2022-10-31T09:30:09;11.90;99.90
7814;DHT22;3952;48.364;16.022;2022-10-31T09:32:36;11.80;99.90
7814;DHT22;3952;48.364;16.022;2022-10-31T09:35:04;11.70;99.90
7814;DHT22;3952;48.364;16.022;2022-10-31T09:37:31;11.70;99.90
7814;DHT22;3952;48.364;16.022;2022-10-31T09:40:00;11.70;99.90
7814;DHT22;3952;48.364;16.022;2022-10-31T09:42:52;11.80;99.90
7814;DHT22;3952;48.364;16.022;2022-10-31T09:45:26;11.80;99.90
7814;DHT22;3952;48.364;16.022;2022-10-31T09:48:18;11.80;99.90
7814;DHT22;3952;48.364;16.022;2022-10-31T09:50:49;11.80;99.90
7814;DHT22;3952;48.364;16.022;2022-10-31T09:53:23;11.80;99.90
7814;DHT22;3952;48.364;16.022;2022-10-31T09:55:54;11.90;99.90
7814;DHT22;3952;48.364;16.022;2022-10-31T09:58:24;11.90;99.90
7814;DHT22;3952;48.364;16.022;2022-10-31T10:00:53;11.90;99.90
7814;DHT22;3952;48.364;16.022;2022-10-31T10:03:29;11.90;99.90
7814;DHT22;3952;48.364;16.022;2022-10-31T10:06:04;11.80;99.90
7814;DHT22;3952;48.364;16.022;2022-10-31T10:08:35;11.90;99.90
7814;DHT22;3952;48.364;16.022;2022-10-31T10:11:14;11.90;99.90
7814;DHT22;3952;48.364;16.022;2022-10-31T10:13:55;11.90;99.90
7814;DHT22;3952;48.364;16.022;2022-10-31T10:16:35;11.90;99.90
7814;DHT22;3952;48.364;16.022;2022-10-31T10:19:23;12.00;99.90
7814;DHT22;3952;48.364;16.022;2022-10-31T10:21:57;11.90;99.90
7814;DHT22;3952;48.364;16.022;2022-10-31T10:24:46;12.00;99.90
7814;DHT22;3952;48.364;16.022;2022-10-31T10:27:22;12.00;99.90
7814;DHT22;3952;48.364;16.022;2022-10-31T10:29:57;12.00;99.90
7814;DHT22;3952;48.364;16.022;2022-10-31T10:32:28;11.90;99.90
7814;DHT22;3952;48.364;16.022;2022-10-31T10:35:00;12.00;99.90
7814;DHT22;3952;48.364;16.022;2022-10-31T10:37:31;11.90;99.90
7814;DHT22;3952;48.364;16.022;2022-10-31T10:40:07;11.80;99.90
7814;DHT22;3952;48.364;16.022;2022-10-31T10:42:37;11.70;99.90
7814;DHT22;3952;48.364;16.022;2022-10-31T10:45:22;11.70;99.90
7814;DHT22;3952;48.364;16.022;2022-10-31T10:48:12;11.70;99.90
7814;DHT22;3952;48.364;16.022;2022-10-31T10:50:46;11.80;99.90
7814;DHT22;3952;48.364;16.022;2022-10-31T10:53:25;11.80;99.90
7814;DHT22;3952;48.364;16.022;2022-10-31T10:56:08;11.80;99.90
7814;DHT22;3952;48.364;16.022;2022-10-31T10:58:40;11.90;99.90
7814;DHT22;3952;48.364;16.022;2022-10-31T11:01:13;11.80;99.90
7814;DHT22;3952;48.364;16.022;2022-10-31T11:03:41;12.00;99.90
7814;DHT22;3952;48.364;16.022;2022-10-31T11:06:18;12.00;99.90
7814;DHT22;3952;48.364;16.022;2022-10-31T11:08:51;12.00;99.90
7814;DHT22;3952;48.364;16.022;2022-10-31T11:11:26;12.00;99.90
7814;DHT22;3952;48.364;16.022;2022-10-31T11:13:59;12.10;99.90
7814;DHT22;3952;48.364;16.022;2022-10-31T11:16:30;12.10;99.90
7814;DHT22;3952;48.364;16.022;2022-10-31T11:19:07;12.10;99.90
7814;DHT22;3952;48.364;16.022;2022-10-31T11:21:35;12.10;99.90
7814;DHT22;3952;48.364;16.022;2022-10-31T11:24:03;12.20;99.90
7814;DHT22;3952;48.364;16.022;2022-10-31T11:26:30;12.20;99.90
7814;DHT22;3952;48.364;16.022;2022-10-31T11:29:02;12.20;99.90
7814;DHT22;3952;48.364;16.022;2022-10-31T11:31:29;12.60;99.90
7814;DHT22;3952;48.364;16.022;2022-10-31T11:34:00;12.30;99.90
7814;DHT22;3952;48.364;16.022;2022-10-31T11:36:30;12.20;99.90
7814;DHT22;3952;48.364;16.022;2022-10-31T11:38:59;12.20;99.90
7814;DHT22;3952;48.364;16.022;2022-10-31T11:41:30;12.30;99.90
7814;DHT22;3952;48.364;16.022;2022-10-31T11:44:02;12.40;99.90
7814;DHT22;3952;48.364;16.022;2022-10-31T11:46:33;12.40;99.90
7814;DHT22;3952;48.364;16.022;2022-10-31T11:49:02;12.40;99.90
7814;DHT22;3952;48.364;16.022;2022-10-31T11:51:32;12.50;99.90
7814;DHT22;3952;48.364;16.022;2022-10-31T11:54:01;12.50;99.90
7814;DHT22;3952;48.364;16.022;2022-10-31T11:56:38;12.50;99.90
7814;DHT22;3952;48.364;16.022;2022-10-31T11:59:21;12.50;99.90
7814;DHT22;3952;48.364;16.022;2022-10-31T12:01:51;12.60;99.90
7814;DHT22;3952;48.364;16.022;2022-10-31T12:04:26;12.60;99.90
7814;DHT22;3952;48.364;16.022;2022-10-31T12:06:54;12.70;99.90
7814;DHT22;3952;48.364;16.022;2022-10-31T12:09:23;12.60;99.90
7814;DHT22;3952;48.364;16.022;2022-10-31T12:12:07;12.70;99.90
7814;DHT22;3952;48.364;16.022;2022-10-31T12:14:46;12.70;99.90
7814;DHT22;3952;48.364;16.022;2022-10-31T12:17:16;12.70;99.90
7814;DHT22;3952;48.364;16.022;2022-10-31T12:19:59;12.80;99.90
7814;DHT22;3952;48.364;16.022;2022-10-31T12:22:36;12.80;99.90
7814;DHT22;3952;48.364;16.022;2022-10-31T12:25:21;12.80;99.90
7814;DHT22;3952;48.364;16.022;2022-10-31T12:28:00;12.80;99.90
7814;DHT22;3952;48.364;16.022;2022-10-31T12:30:43;12.80;99.90
7814;DHT22;3952;48.364;16.022;2022-10-31T12:33:31;12.90;99.90
7814;DHT22;3952;48.364;16.022;2022-10-31T12:36:12;12.90;99.90
7814;DHT22;3952;48.364;16.022;2022-10-31T12:39:11;12.80;99.90
7814;DHT22;3952;48.364;16.022;2022-10-31T12:41:47;12.90;99.90
7814;DHT22;3952;48.364;16.022;2022-10-31T12:47:31;12.80;99.90
7814;DHT22;3952;48.364;16.022;2022-10-31T12:50:16;12.80;99.90
7814;DHT22;3952;48.364;16.022;2022-10-31T12:52:56;12.80;99.90
7814;DHT22;3952;48.364;16.022;2022-10-31T12:55:37;12.80;99.90
7814;DHT22;3952;48.364;16.022;2022-10-31T12:58:10;12.80;99.90
7814;DHT22;3952;48.364;16.022;2022-10-31T13:00:44;12.80;99.90
7814;DHT22;3952;48.364;16.022;2022-10-31T13:03:25;12.80;99.90
7814;DHT22;3952;48.364;16.022;2022-10-31T13:05:57;12.80;99.90
7814;DHT22;3952;48.364;16.022;2022-10-31T13:08:30;12.80;99.90
7814;DHT22;3952;48.364;16.022;2022-10-31T13:11:07;12.80;99.90
7814;DHT22;3952;48.364;16.022;2022-10-31T13:13:38;12.80;99.90
7814;DHT22;3952;48.364;16.022;2022-10-31T13:16:12;12.80;99.90
7814;DHT22;3952;48.364;16.022;2022-10-31T13:18:46;12.80;99.90
7814;DHT22;3952;48.364;16.022;2022-10-31T13:21:19;12.80;99.90
7814;DHT22;3952;48.364;16.022;2022-10-31T13:23:50;12.70;99.90
7814;DHT22;3952;48.364;16.022;2022-10-31T13:26:23;12.70;99.90
7814;DHT22;3952;48.364;16.022;2022-10-31T13:29:00;12.70;99.90
7814;DHT22;3952;48.364;16.022;2022-10-31T13:31:29;12.60;99.90
7814;DHT22;3952;48.364;16.022;2022-10-31T13:34:00;12.70;99.90
7814;DHT22;3952;48.364;16.022;2022-10-31T13:36:33;12.70;99.90
7814;DHT22;3952;48.364;16.022;2022-10-31T13:39:10;12.70;99.90
7814;DHT22;3952;48.364;16.022;2022-10-31T13:41:44;12.70;99.90
7814;DHT22;3952;48.364;16.022;2022-10-31T13:44:15;12.70;99.90
7814;DHT22;3952;48.364;16.022;2022-10-31T13:46:44;12.70;99.90
7814;DHT22;3952;48.364;16.022;2022-10-31T13:49:37;12.80;99.90
7814;DHT22;3952;48.364;16.022;2022-10-31T13:52:15;12.80;99.90
7814;DHT22;3952;48.364;16.022;2022-10-31T13:54:44;12.70;99.90
7814;DHT22;3952;48.364;16.022;2022-10-31T13:57:29;12.80;99.90
7814;DHT22;3952;48.364;16.022;2022-10-31T14:00:00;12.70;99.90
7814;DHT22;3952;48.364;16.022;2022-10-31T14:02:30;12.70;99.90
7814;DHT22;3952;48.364;16.022;2022-10-31T14:05:02;12.70;99.90
7814;DHT22;3952;48.364;16.022;2022-10-31T14:07:30;12.70;99.90
7814;DHT22;3952;48.364;16.022;2022-10-31T14:10:02;12.70;99.90
7814;DHT22;3952;48.364;16.022;2022-10-31T14:12:31;12.70;99.90
7814;DHT22;3952;48.364;16.022;2022-10-31T14:15:04;12.70;99.90
7814;DHT22;3952;48.364;16.022;2022-10-31T14:17:38;12.70;99.90
7814;DHT22;3952;48.364;16.022;2022-10-31T14:20:33;12.70;99.90
7814;DHT22;3952;48.364;16.022;2022-10-31T14:23:12;12.70;99.90
7814;DHT22;3952;48.364;16.022;2022-10-31T14:25:39;12.70;99.90
7814;DHT22;3952;48.364;16.022;2022-10-31T14:28:19;12.70;99.90
7814;DHT22;3952;48.364;16.022;2022-10-31T14:30:52;12.70;99.90
7814;DHT22;3952;48.364;16.022;2022-10-31T14:33:20;12.70;99.90
7814;DHT22;3952;48.364;16.022;2022-10-31T14:35:56;12.70;99.90
7814;DHT22;3952;48.364;16.022;2022-10-31T14:38:52;12.60;99.90
7814;DHT22;3952;48.364;16.022;2022-10-31T14:41:44;12.60;99.90
7814;DHT22;3952;48.364;16.022;2022-10-31T14:44:36;12.60;99.90
7814;DHT22;3952;48.364;16.022;2022-10-31T14:47:16;12.60;99.90
7814;DHT22;3952;48.364;16.022;2022-10-31T14:52:46;12.50;99.90
7814;DHT22;3952;48.364;16.022;2022-10-31T14:55:14;12.60;99.90
7814;DHT22;3952;48.364;16.022;2022-10-31T14:57:49;12.60;99.90
7814;DHT22;3952;48.364;16.022;2022-10-31T15:00:19;12.50;99.90
7814;DHT22;3952;48.364;16.022;2022-10-31T15:02:56;12.50;99.90
7814;DHT22;3952;48.364;16.022;2022-10-31T15:05:27;12.50;99.90
7814;DHT22;3952;48.364;16.022;2022-10-31T15:07:57;12.50;99.90
7814;DHT22;3952;48.364;16.022;2022-10-31T15:10:27;12.50;99.90
7814;DHT22;3952;48.364;16.022;2022-10-31T15:12:55;12.50;99.90
7814;DHT22;3952;48.364;16.022;2022-10-31T15:15:24;12.50;99.90
7814;DHT22;3952;48.364;16.022;2022-10-31T15:17:55;12.50;99.90
7814;DHT22;3952;48.364;16.022;2022-10-31T15:20:25;12.50;99.90
7814;DHT22;3952;48.364;16.022;2022-10-31T15:22:57;12.50;99.90
7814;DHT22;3952;48.364;16.022;2022-10-31T15:25:33;12.50;99.90
7814;DHT22;3952;48.364;16.022;2022-10-31T15:28:01;12.50;99.90
7814;DHT22;3952;48.364;16.022;2022-10-31T15:30:39;12.50;99.90
7814;DHT22;3952;48.364;16.022;2022-10-31T15:33:19;12.50;99.90
7814;DHT22;3952;48.364;16.022;2022-10-31T15:35:55;12.50;99.90
7814;DHT22;3952;48.364;16.022;2022-10-31T15:38:24;12.50;99.90
7814;DHT22;3952;48.364;16.022;2022-10-31T15:40:54;12.50;99.90
7814;DHT22;3952;48.364;16.022;2022-10-31T15:43:22;12.50;99.90
7814;DHT22;3952;48.364;16.022;2022-10-31T15:45:50;12.50;99.90
7814;DHT22;3952;48.364;16.022;2022-10-31T15:48:20;12.50;99.90
7814;DHT22;3952;48.364;16.022;2022-10-31T15:50:51;12.50;99.90
7814;DHT22;3952;48.364;16.022;2022-10-31T15:53:22;12.50;99.90
7814;DHT22;3952;48.364;16.022;2022-10-31T15:55:55;12.50;99.90
7814;DHT22;3952;48.364;16.022;2022-10-31T15:58:23;12.50;99.90
7814;DHT22;3952;48.364;16.022;2022-10-31T16:00:59;12.50;99.90
7814;DHT22;3952;48.364;16.022;2022-10-31T16:03:28;12.50;99.90
7814;DHT22;3952;48.364;16.022;2022-10-31T16:05:59;12.50;99.90
7814;DHT22;3952;48.364;16.022;2022-10-31T16:08:33;12.50;99.90
7814;DHT22;3952;48.364;16.022;2022-10-31T16:11:17;12.50;99.90
7814;DHT22;3952;48.364;16.022;2022-10-31T16:13:54;12.50;99.90
7814;DHT22;3952;48.364;16.022;2022-10-31T16:16:21;12.40;99.90
7814;DHT22;3952;48.364;16.022;2022-10-31T16:18:50;12.40;99.90
7814;DHT22;3952;48.364;16.022;2022-10-31T16:21:25;12.50;99.90
7814;DHT22;3952;48.364;16.022;2022-10-31T16:23:58;12.40;99.90
7814;DHT22;3952;48.364;16.022;2022-10-31T16:26:27;12.40;99.90
7814;DHT22;3952;48.364;16.022;2022-10-31T16:28:56;12.40;99.90
7814;DHT22;3952;48.364;16.022;2022-10-31T16:31:29;12.40;99.90
7814;DHT22;3952;48.364;16.022;2022-10-31T16:34:05;12.40;99.90
7814;DHT22;3952;48.364;16.022;2022-10-31T16:36:33;12.40;99.90
7814;DHT22;3952;48.364;16.022;2022-10-31T16:39:04;11.80;99.90
7814;DHT22;3952;48.364;16.022;2022-10-31T16:41:35;12.40;99.90
7814;DHT22;3952;48.364;16.022;2022-10-31T16:44:06;12.40;99.90
7814;DHT22;3952;48.364;16.022;2022-10-31T16:46:33;12.40;99.90
7814;DHT22;3952;48.364;16.022;2022-10-31T16:49:00;12.50;99.90
7814;DHT22;3952;48.364;16.022;2022-10-31T16:51:27;12.40;99.90
7814;DHT22;3952;48.364;16.022;2022-10-31T16:53:55;12.40;99.90
7814;DHT22;3952;48.364;16.022;2022-10-31T16:56:26;12.50;99.90
7814;DHT22;3952;48.364;16.022;2022-10-31T16:58:56;12.40;99.90
7814;DHT22;3952;48.364;16.022;2022-10-31T17:01:23;12.40;99.90
7814;DHT22;3952;48.364;16.022;2022-10-31T17:03:50;12.50;99.90
7814;DHT22;3952;48.364;16.022;2022-10-31T17:06:18;12.50;99.90
7814;DHT22;3952;48.364;16.022;2022-10-31T17:08:45;12.50;99.90
7814;DHT22;3952;48.364;16.022;2022-10-31T17:11:17;12.50;99.90
7814;DHT22;3952;48.364;16.022;2022-10-31T17:13:45;12.50;99.90
7814;DHT22;3952;48.364;16.022;2022-10-31T17:16:14;12.50;99.90
7814;DHT22;3952;48.364;16.022;2022-10-31T17:18:42;12.50;99.90
7814;DHT22;3952;48.364;16.022;2022-10-31T17:21:16;12.50;99.90